sensor_id;sensor_type;location;lat;lon;timestamp;temperature;humidity
16140;DHT22;8175;49.326;12.690;2023-03-01T00:01:59;-2.10;99.90
16140;DHT22;8175;49.326;12.690;2023-03-01T00:04:25;-2.10;99.90
16140;DHT22;8175;49.326;12.690;2023-03-01T00:06:51;-1.70;99.90
16140;DHT22;8175;49.326;12.690;2023-03-01T00:09:17;-1.60;99.90
16140;DHT22;8175;49.326;12.690;2023-03-01T00:11:44;-1.70;99.90
16140;DHT22;8175;49.326;12.690;2023-03-01T00:14:10;-1.80;99.90
16140;DHT22;8175;49.326;12.690;2023-03-01T00:16:38;-1.80;99.90
16140;DHT22;8175;49.326;12.690;2023-03-01T00:19:06;-1.50;99.90
16140;DHT22;8175;49.326;12.690;2023-03-01T00:21:32;-1.50;99.90
16140;DHT22;8175;49.326;12.690;2023-03-01T00:23:59;-1.50;99.90
16140;DHT22;8175;49.326;12.690;2023-03-01T00:26:26;-1.40;99.90
16140;DHT22;8175;49.326;12.690;2023-03-01T00:28:52;-1.50;99.90
16140;DHT22;8175;49.326;12.690;2023-03-01T00:31:22;-1.60;99.90
16140;DHT22;8175;49.326;12.690;2023-03-01T00:33:48;-1.50;99.90
16140;DHT22;8175;49.326;12.690;2023-03-01T00:36:17;-1.50;99.90
16140;DHT22;8175;49.326;12.690;2023-03-01T00:38:44;-1.50;99.90
16140;DHT22;8175;49.326;12.690;2023-03-01T00:41:13;-1.50;99.90
16140;DHT22;8175;49.326;12.690;2023-03-01T00:43:39;-1.60;99.90
16140;DHT22;8175;49.326;12.690;2023-03-01T00:46:07;-1.60;99.90
16140;DHT22;8175;49.326;12.690;2023-03-01T00:48:34;-1.70;99.90
16140;DHT22;8175;49.326;12.690;2023-03-01T00:51:17;-1.70;99.90
16140;DHT22;8175;49.326;12.690;2023-03-01T00:53:44;-1.80;99.90
16140;DHT22;8175;49.326;12.690;2023-03-01T00:56:12;-2.00;99.90
16140;DHT22;8175;49.326;12.690;2023-03-01T00:58:39;-2.10;99.90
16140;DHT22;8175;49.326;12.690;2023-03-01T01:01:13;-2.10;99.90
16140;DHT22;8175;49.326;12.690;2023-03-01T01:04:04;-2.10;99.90
16140;DHT22;8175;49.326;12.690;2023-03-01T01:06:38;-2.00;99.90
16140;DHT22;8175;49.326;12.690;2023-03-01T01:09:05;-1.90;99.90
16140;DHT22;8175;49.326;12.690;2023-03-01T01:11:32;-1.80;99.90
16140;DHT22;8175;49.326;12.690;2023-03-01T01:13:59;-1.70;99.90
16140;DHT22;8175;49.326;12.690;2023-03-01T01:16:27;-1.70;99.90
16140;DHT22;8175;49.326;12.690;2023-03-01T01:18:53;-1.70;99.90
16140;DHT22;8175;49.326;12.690;2023-03-01T01:21:21;-1.60;99.90
16140;DHT22;8175;49.326;12.690;2023-03-01T01:23:48;-1.50;99.90
16140;DHT22;8175;49.326;12.690;2023-03-01T01:26:17;-1.50;99.90
16140;DHT22;8175;49.326;12.690;2023-03-01T01:28:43;-1.60;99.90
16140;DHT22;8175;49.326;12.690;2023-03-01T01:31:09;-1.80;99.90
16140;DHT22;8175;49.326;12.690;2023-03-01T01:33:35;-1.70;99.90
16140;DHT22;8175;49.326;12.690;2023-03-01T01:36:00;-1.30;99.90
16140;DHT22;8175;49.326;12.690;2023-03-01T01:38:26;-1.30;99.90
16140;DHT22;8175;49.326;12.690;2023-03-01T01:40:52;-1.20;99.90
16140;DHT22;8175;49.326;12.690;2023-03-01T01:43:27;-1.30;99.90
16140;DHT22;8175;49.326;12.690;2023-03-01T01:46:02;-1.50;99.90
16140;DHT22;8175;49.326;12.690;2023-03-01T01:48:41;-1.70;99.90
16140;DHT22;8175;49.326;12.690;2023-03-01T01:51:16;-1.90;99.90
16140;DHT22;8175;49.326;12.690;2023-03-01T01:53:44;-1.70;99.90
16140;DHT22;8175;49.326;12.690;2023-03-01T01:56:11;-1.50;99.90
16140;DHT22;8175;49.326;12.690;2023-03-01T01:58:38;-1.40;99.90
16140;DHT22;8175;49.326;12.690;2023-03-01T02:01:05;-1.30;99.90
16140;DHT22;8175;49.326;12.690;2023-03-01T02:03:33;-1.30;99.90
16140;DHT22;8175;49.326;12.690;2023-03-01T02:08:44;-1.20;99.90
16140;DHT22;8175;49.326;12.690;2023-03-01T02:11:12;-1.20;99.90
16140;DHT22;8175;49.326;12.690;2023-03-01T02:13:40;-1.40;99.90
16140;DHT22;8175;49.326;12.690;2023-03-01T02:16:11;-1.50;99.90
16140;DHT22;8175;49.326;12.690;2023-03-01T02:18:38;-1.70;99.90
16140;DHT22;8175;49.326;12.690;2023-03-01T02:27:12;-2.10;99.90
16140;DHT22;8175;49.326;12.690;2023-03-01T02:29:38;-2.20;99.90
16140;DHT22;8175;49.326;12.690;2023-03-01T02:32:04;-2.20;99.90
16140;DHT22;8175;49.326;12.690;2023-03-01T02:34:31;-2.30;99.90
16140;DHT22;8175;49.326;12.690;2023-03-01T02:37:02;-2.20;99.90
16140;DHT22;8175;49.326;12.690;2023-03-01T02:40:08;-2.00;99.90
16140;DHT22;8175;49.326;12.690;2023-03-01T02:42:41;-2.00;99.90
16140;DHT22;8175;49.326;12.690;2023-03-01T02:45:09;-1.90;99.90
16140;DHT22;8175;49.326;12.690;2023-03-01T02:47:36;-1.70;99.90
16140;DHT22;8175;49.326;12.690;2023-03-01T02:50:01;-1.60;99.90
16140;DHT22;8175;49.326;12.690;2023-03-01T02:52:37;-1.60;99.90
16140;DHT22;8175;49.326;12.690;2023-03-01T02:55:16;-1.60;99.90
16140;DHT22;8175;49.326;12.690;2023-03-01T02:57:44;-1.50;99.90
16140;DHT22;8175;49.326;12.690;2023-03-01T03:00:13;-1.50;99.90
16140;DHT22;8175;49.326;12.690;2023-03-01T03:02:46;-1.40;99.90
16140;DHT22;8175;49.326;12.690;2023-03-01T03:05:18;-1.80;99.90
16140;DHT22;8175;49.326;12.690;2023-03-01T03:07:46;-2.00;99.90
16140;DHT22;8175;49.326;12.690;2023-03-01T03:10:18;-1.80;99.90
16140;DHT22;8175;49.326;12.690;2023-03-01T03:12:51;-1.70;99.90
16140;DHT22;8175;49.326;12.690;2023-03-01T03:15:17;-1.80;99.90
16140;DHT22;8175;49.326;12.690;2023-03-01T03:17:43;-1.70;99.90
16140;DHT22;8175;49.326;12.690;2023-03-01T03:20:11;-1.80;99.90
16140;DHT22;8175;49.326;12.690;2023-03-01T03:22:41;-1.70;99.90
16140;DHT22;8175;49.326;12.690;2023-03-01T03:25:08;-1.60;99.90
16140;DHT22;8175;49.326;12.690;2023-03-01T03:27:36;-1.60;99.90
16140;DHT22;8175;49.326;12.690;2023-03-01T03:30:04;-1.50;99.90
16140;DHT22;8175;49.326;12.690;2023-03-01T03:32:38;-1.40;99.90
16140;DHT22;8175;49.326;12.690;2023-03-01T03:35:05;-1.30;99.90
16140;DHT22;8175;49.326;12.690;2023-03-01T03:37:40;-1.30;99.90
16140;DHT22;8175;49.326;12.690;2023-03-01T03:40:25;-1.40;99.90
16140;DHT22;8175;49.326;12.690;2023-03-01T03:42:51;-1.40;99.90
16140;DHT22;8175;49.326;12.690;2023-03-01T03:45:17;-1.50;99.90
16140;DHT22;8175;49.326;12.690;2023-03-01T03:47:43;-1.20;99.90
16140;DHT22;8175;49.326;12.690;2023-03-01T03:50:14;-1.10;99.90
16140;DHT22;8175;49.326;12.690;2023-03-01T03:52:40;-1.10;99.90
16140;DHT22;8175;49.326;12.690;2023-03-01T03:55:07;-1.20;99.90
16140;DHT22;8175;49.326;12.690;2023-03-01T03:57:40;-1.20;99.90
16140;DHT22;8175;49.326;12.690;2023-03-01T04:00:09;-1.30;99.90
16140;DHT22;8175;49.326;12.690;2023-03-01T04:02:42;-1.20;99.90
16140;DHT22;8175;49.326;12.690;2023-03-01T04:05:10;-1.30;99.90
16140;DHT22;8175;49.326;12.690;2023-03-01T04:07:37;-1.30;99.90
16140;DHT22;8175;49.326;12.690;2023-03-01T04:10:04;-1.30;99.90
16140;DHT22;8175;49.326;12.690;2023-03-01T04:12:31;-1.20;99.90
16140;DHT22;8175;49.326;12.690;2023-03-01T04:14:59;-1.10;99.90
16140;DHT22;8175;49.326;12.690;2023-03-01T04:17:25;-1.10;99.90
16140;DHT22;8175;49.326;12.690;2023-03-01T04:19:51;-1.10;99.90
16140;DHT22;8175;49.326;12.690;2023-03-01T04:22:17;-1.00;99.90
16140;DHT22;8175;49.326;12.690;2023-03-01T04:24:44;-1.00;99.90
16140;DHT22;8175;49.326;12.690;2023-03-01T04:27:11;-1.10;99.90
16140;DHT22;8175;49.326;12.690;2023-03-01T04:29:36;-1.10;99.90
16140;DHT22;8175;49.326;12.690;2023-03-01T04:32:02;-1.00;99.90
16140;DHT22;8175;49.326;12.690;2023-03-01T04:34:29;-1.00;99.90
16140;DHT22;8175;49.326;12.690;2023-03-01T04:36:54;-0.90;99.90
16140;DHT22;8175;49.326;12.690;2023-03-01T04:39:20;-0.70;99.90
16140;DHT22;8175;49.326;12.690;2023-03-01T04:41:46;-0.80;99.90
16140;DHT22;8175;49.326;12.690;2023-03-01T04:44:12;-0.70;99.90
16140;DHT22;8175;49.326;12.690;2023-03-01T04:46:38;-0.80;99.90
16140;DHT22;8175;49.326;12.690;2023-03-01T04:49:04;-0.80;99.90
16140;DHT22;8175;49.326;12.690;2023-03-01T04:51:30;-0.70;99.90
16140;DHT22;8175;49.326;12.690;2023-03-01T04:53:58;-0.70;99.90
16140;DHT22;8175;49.326;12.690;2023-03-01T04:56:24;-0.60;99.90
16140;DHT22;8175;49.326;12.690;2023-03-01T04:58:52;-0.70;99.90
16140;DHT22;8175;49.326;12.690;2023-03-01T05:01:19;-0.80;99.90
16140;DHT22;8175;49.326;12.690;2023-03-01T05:03:50;-0.90;99.90
16140;DHT22;8175;49.326;12.690;2023-03-01T05:06:16;-0.90;99.90
16140;DHT22;8175;49.326;12.690;2023-03-01T05:08:42;-1.00;99.90
16140;DHT22;8175;49.326;12.690;2023-03-01T05:11:09;-1.00;99.90
16140;DHT22;8175;49.326;12.690;2023-03-01T05:13:36;-1.10;99.90
16140;DHT22;8175;49.326;12.690;2023-03-01T05:16:04;-1.00;99.90
16140;DHT22;8175;49.326;12.690;2023-03-01T05:18:32;-0.90;99.90
16140;DHT22;8175;49.326;12.690;2023-03-01T05:21:06;-0.90;99.90
16140;DHT22;8175;49.326;12.690;2023-03-01T05:23:33;-0.90;99.90
16140;DHT22;8175;49.326;12.690;2023-03-01T05:26:03;-0.80;99.90
16140;DHT22;8175;49.326;12.690;2023-03-01T05:28:30;-0.70;99.90
16140;DHT22;8175;49.326;12.690;2023-03-01T05:30:56;-0.70;99.90
16140;DHT22;8175;49.326;12.690;2023-03-01T05:33:22;-0.60;99.90
16140;DHT22;8175;49.326;12.690;2023-03-01T05:35:49;-0.60;99.90
16140;DHT22;8175;49.326;12.690;2023-03-01T05:38:16;-0.60;99.90
16140;DHT22;8175;49.326;12.690;2023-03-01T05:40:43;-0.60;99.90
16140;DHT22;8175;49.326;12.690;2023-03-01T05:43:10;-0.60;99.90
16140;DHT22;8175;49.326;12.690;2023-03-01T05:45:37;-0.60;99.90
16140;DHT22;8175;49.326;12.690;2023-03-01T05:48:04;-0.80;99.90
16140;DHT22;8175;49.326;12.690;2023-03-01T05:50:33;-0.80;99.90
16140;DHT22;8175;49.326;12.690;2023-03-01T05:53:05;-1.00;99.90
16140;DHT22;8175;49.326;12.690;2023-03-01T05:55:34;-1.10;99.90
16140;DHT22;8175;49.326;12.690;2023-03-01T05:58:06;-1.00;99.90
16140;DHT22;8175;49.326;12.690;2023-03-01T06:00:32;-1.00;99.90
16140;DHT22;8175;49.326;12.690;2023-03-01T06:02:59;-0.80;99.90
16140;DHT22;8175;49.326;12.690;2023-03-01T06:05:26;-0.70;99.90
16140;DHT22;8175;49.326;12.690;2023-03-01T06:07:52;-0.60;99.90
16140;DHT22;8175;49.326;12.690;2023-03-01T06:10:20;-0.60;99.90
16140;DHT22;8175;49.326;12.690;2023-03-01T06:12:46;-0.70;99.90
16140;DHT22;8175;49.326;12.690;2023-03-01T06:15:13;-0.80;99.90
16140;DHT22;8175;49.326;12.690;2023-03-01T06:17:41;-0.80;99.90
16140;DHT22;8175;49.326;12.690;2023-03-01T06:20:15;-0.80;99.90
16140;DHT22;8175;49.326;12.690;2023-03-01T06:22:42;-0.60;99.90
16140;DHT22;8175;49.326;12.690;2023-03-01T06:25:10;-0.50;99.90
16140;DHT22;8175;49.326;12.690;2023-03-01T06:27:38;-0.60;99.90
16140;DHT22;8175;49.326;12.690;2023-03-01T06:30:04;-0.60;99.90
16140;DHT22;8175;49.326;12.690;2023-03-01T06:32:30;-0.70;99.90
16140;DHT22;8175;49.326;12.690;2023-03-01T06:34:57;-0.80;99.90
16140;DHT22;8175;49.326;12.690;2023-03-01T06:37:24;-1.00;99.90
16140;DHT22;8175;49.326;12.690;2023-03-01T06:39:50;-1.00;99.90
16140;DHT22;8175;49.326;12.690;2023-03-01T06:42:16;-1.10;99.90
16140;DHT22;8175;49.326;12.690;2023-03-01T06:44:41;-1.10;99.90
16140;DHT22;8175;49.326;12.690;2023-03-01T06:47:07;-1.20;99.90
16140;DHT22;8175;49.326;12.690;2023-03-01T06:49:33;-1.20;99.90
16140;DHT22;8175;49.326;12.690;2023-03-01T06:51:58;-1.20;99.90
16140;DHT22;8175;49.326;12.690;2023-03-01T06:54:24;-1.10;99.90
16140;DHT22;8175;49.326;12.690;2023-03-01T06:56:50;-1.10;99.90
16140;DHT22;8175;49.326;12.690;2023-03-01T06:59:17;-1.10;99.90
16140;DHT22;8175;49.326;12.690;2023-03-01T07:01:43;-1.00;99.90
16140;DHT22;8175;49.326;12.690;2023-03-01T07:04:09;-1.00;99.90
16140;DHT22;8175;49.326;12.690;2023-03-01T07:06:35;-1.00;99.90
16140;DHT22;8175;49.326;12.690;2023-03-01T07:09:01;-0.90;99.90
16140;DHT22;8175;49.326;12.690;2023-03-01T07:11:27;-0.90;99.90
16140;DHT22;8175;49.326;12.690;2023-03-01T07:13:52;-0.90;99.90
16140;DHT22;8175;49.326;12.690;2023-03-01T07:16:18;-1.00;99.90
16140;DHT22;8175;49.326;12.690;2023-03-01T07:18:45;-0.90;99.90
16140;DHT22;8175;49.326;12.690;2023-03-01T07:21:12;-0.90;99.90
16140;DHT22;8175;49.326;12.690;2023-03-01T07:23:38;-0.80;99.90
16140;DHT22;8175;49.326;12.690;2023-03-01T07:26:04;-0.70;99.90
16140;DHT22;8175;49.326;12.690;2023-03-01T07:28:30;-0.60;99.90
16140;DHT22;8175;49.326;12.690;2023-03-01T07:31:01;-0.60;99.90
16140;DHT22;8175;49.326;12.690;2023-03-01T07:33:27;-0.50;99.90
16140;DHT22;8175;49.326;12.690;2023-03-01T07:35:59;-0.40;99.90
16140;DHT22;8175;49.326;12.690;2023-03-01T07:38:25;-0.20;99.90
16140;DHT22;8175;49.326;12.690;2023-03-01T07:40:51;0.40;99.90
16140;DHT22;8175;49.326;12.690;2023-03-01T07:43:17;1.30;99.90
16140;DHT22;8175;49.326;12.690;2023-03-01T07:45:43;2.60;99.90
16140;DHT22;8175;49.326;12.690;2023-03-01T07:48:08;3.60;99.90
16140;DHT22;8175;49.326;12.690;2023-03-01T07:50:35;4.40;99.90
16140;DHT22;8175;49.326;12.690;2023-03-01T07:53:00;5.30;99.90
16140;DHT22;8175;49.326;12.690;2023-03-01T07:55:26;6.00;99.90
16140;DHT22;8175;49.326;12.690;2023-03-01T07:57:52;6.80;99.90
16140;DHT22;8175;49.326;12.690;2023-03-01T08:00:17;7.00;99.30
16140;DHT22;8175;49.326;12.690;2023-03-01T08:02:43;7.10;97.70
16140;DHT22;8175;49.326;12.690;2023-03-01T08:05:10;7.00;96.40
16140;DHT22;8175;49.326;12.690;2023-03-01T08:07:36;6.50;97.10
16140;DHT22;8175;49.326;12.690;2023-03-01T08:10:01;6.10;96.30
16140;DHT22;8175;49.326;12.690;2023-03-01T08:12:27;6.30;97.70
16140;DHT22;8175;49.326;12.690;2023-03-01T08:14:53;6.60;95.90
16140;DHT22;8175;49.326;12.690;2023-03-01T08:17:19;7.10;94.80
16140;DHT22;8175;49.326;12.690;2023-03-01T08:19:45;6.50;95.40
16140;DHT22;8175;49.326;12.690;2023-03-01T08:22:11;6.70;95.80
16140;DHT22;8175;49.326;12.690;2023-03-01T08:24:37;6.50;95.30
16140;DHT22;8175;49.326;12.690;2023-03-01T08:27:03;6.40;93.50
16140;DHT22;8175;49.326;12.690;2023-03-01T08:29:31;5.80;94.80
16140;DHT22;8175;49.326;12.690;2023-03-01T08:31:57;6.00;93.80
16140;DHT22;8175;49.326;12.690;2023-03-01T08:34:22;5.70;94.00
16140;DHT22;8175;49.326;12.690;2023-03-01T08:36:48;5.50;95.60
16140;DHT22;8175;49.326;12.690;2023-03-01T08:39:16;4.90;95.00
16140;DHT22;8175;49.326;12.690;2023-03-01T08:41:42;4.50;95.00
16140;DHT22;8175;49.326;12.690;2023-03-01T08:44:09;4.50;94.80
16140;DHT22;8175;49.326;12.690;2023-03-01T08:46:38;4.40;95.70
16140;DHT22;8175;49.326;12.690;2023-03-01T08:49:08;4.20;97.20
16140;DHT22;8175;49.326;12.690;2023-03-01T08:51:35;4.60;94.60
16140;DHT22;8175;49.326;12.690;2023-03-01T08:54:07;5.00;95.60
16140;DHT22;8175;49.326;12.690;2023-03-01T08:56:35;5.30;97.30
16140;DHT22;8175;49.326;12.690;2023-03-01T08:59:01;5.30;94.90
16140;DHT22;8175;49.326;12.690;2023-03-01T09:01:26;5.30;95.00
16140;DHT22;8175;49.326;12.690;2023-03-01T09:03:52;5.00;95.20
16140;DHT22;8175;49.326;12.690;2023-03-01T09:06:18;4.90;95.20
16140;DHT22;8175;49.326;12.690;2023-03-01T09:08:46;4.90;96.00
16140;DHT22;8175;49.326;12.690;2023-03-01T09:11:15;4.70;97.40
16140;DHT22;8175;49.326;12.690;2023-03-01T09:13:43;5.30;96.80
16140;DHT22;8175;49.326;12.690;2023-03-01T09:16:09;6.00;95.30
16140;DHT22;8175;49.326;12.690;2023-03-01T09:18:35;6.60;94.10
16140;DHT22;8175;49.326;12.690;2023-03-01T09:21:09;7.00;93.30
16140;DHT22;8175;49.326;12.690;2023-03-01T09:23:37;6.70;94.50
16140;DHT22;8175;49.326;12.690;2023-03-01T09:26:08;6.90;94.90
16140;DHT22;8175;49.326;12.690;2023-03-01T09:28:38;8.00;92.70
16140;DHT22;8175;49.326;12.690;2023-03-01T09:31:04;7.60;92.70
16140;DHT22;8175;49.326;12.690;2023-03-01T09:33:31;8.50;91.20
16140;DHT22;8175;49.326;12.690;2023-03-01T09:36:03;8.90;90.80
16140;DHT22;8175;49.326;12.690;2023-03-01T09:38:29;9.10;90.90
16140;DHT22;8175;49.326;12.690;2023-03-01T09:40:56;10.20;87.40
16140;DHT22;8175;49.326;12.690;2023-03-01T09:43:24;10.20;86.90
16140;DHT22;8175;49.326;12.690;2023-03-01T09:45:53;10.30;83.30
16140;DHT22;8175;49.326;12.690;2023-03-01T09:48:24;11.30;81.50
16140;DHT22;8175;49.326;12.690;2023-03-01T09:50:51;11.90;78.20
16140;DHT22;8175;49.326;12.690;2023-03-01T09:53:31;12.80;76.60
16140;DHT22;8175;49.326;12.690;2023-03-01T09:56:05;13.50;70.80
16140;DHT22;8175;49.326;12.690;2023-03-01T09:58:46;12.50;68.00
16140;DHT22;8175;49.326;12.690;2023-03-01T10:04:12;13.00;68.00
16140;DHT22;8175;49.326;12.690;2023-03-01T10:06:49;11.80;69.20
16140;DHT22;8175;49.326;12.690;2023-03-01T10:09:18;12.30;69.20
16140;DHT22;8175;49.326;12.690;2023-03-01T10:11:50;10.90;71.30
16140;DHT22;8175;49.326;12.690;2023-03-01T10:14:30;11.60;70.20
16140;DHT22;8175;49.326;12.690;2023-03-01T10:17:02;11.80;69.80
16140;DHT22;8175;49.326;12.690;2023-03-01T10:19:38;9.90;75.50
16140;DHT22;8175;49.326;12.690;2023-03-01T10:22:25;9.70;80.00
16140;DHT22;8175;49.326;12.690;2023-03-01T10:24:54;10.20;76.60
16140;DHT22;8175;49.326;12.690;2023-03-01T10:30:13;8.90;78.70
16140;DHT22;8175;49.326;12.690;2023-03-01T10:32:42;8.60;80.60
16140;DHT22;8175;49.326;12.690;2023-03-01T10:35:25;8.70;81.50
16140;DHT22;8175;49.326;12.690;2023-03-01T10:40:28;8.60;83.30
16140;DHT22;8175;49.326;12.690;2023-03-01T10:42:57;9.00;80.50
16140;DHT22;8175;49.326;12.690;2023-03-01T10:45:34;9.90;78.10
16140;DHT22;8175;49.326;12.690;2023-03-01T10:48:04;9.20;80.00
16140;DHT22;8175;49.326;12.690;2023-03-01T10:50:31;8.40;84.20
16140;DHT22;8175;49.326;12.690;2023-03-01T10:53:03;8.60;85.50
16140;DHT22;8175;49.326;12.690;2023-03-01T10:55:35;8.70;81.50
16140;DHT22;8175;49.326;12.690;2023-03-01T10:58:21;9.50;80.20
16140;DHT22;8175;49.326;12.690;2023-03-01T11:00:52;9.10;80.10
16140;DHT22;8175;49.326;12.690;2023-03-01T11:03:25;9.90;82.50
16140;DHT22;8175;49.326;12.690;2023-03-01T11:11:13;9.80;79.00
16140;DHT22;8175;49.326;12.690;2023-03-01T11:13:55;10.80;78.20
16140;DHT22;8175;49.326;12.690;2023-03-01T11:16:35;9.90;80.30
16140;DHT22;8175;49.326;12.690;2023-03-01T11:19:19;10.80;75.00
16140;DHT22;8175;49.326;12.690;2023-03-01T11:21:55;9.90;77.50
16140;DHT22;8175;49.326;12.690;2023-03-01T11:24:49;11.20;77.10
16140;DHT22;8175;49.326;12.690;2023-03-01T11:27:32;8.90;81.90
16140;DHT22;8175;49.326;12.690;2023-03-01T11:30:28;9.40;80.00
16140;DHT22;8175;49.326;12.690;2023-03-01T11:33:16;9.70;78.70
16140;DHT22;8175;49.326;12.690;2023-03-01T11:36:07;11.70;78.30
16140;DHT22;8175;49.326;12.690;2023-03-01T11:38:38;12.70;75.90
16140;DHT22;8175;49.326;12.690;2023-03-01T11:43:56;11.40;74.90
16140;DHT22;8175;49.326;12.690;2023-03-01T12:06:01;8.50;88.30
16140;DHT22;8175;49.326;12.690;2023-03-01T12:09:01;7.40;87.50
16140;DHT22;8175;49.326;12.690;2023-03-01T12:11:36;7.60;87.50
16140;DHT22;8175;49.326;12.690;2023-03-01T12:19:58;9.40;81.20
16140;DHT22;8175;49.326;12.690;2023-03-01T12:25:19;8.80;86.40
16140;DHT22;8175;49.326;12.690;2023-03-01T12:42:15;8.90;86.30
16140;DHT22;8175;49.326;12.690;2023-03-01T12:50:24;9.40;84.00
16140;DHT22;8175;49.326;12.690;2023-03-01T12:52:57;10.10;84.30
16140;DHT22;8175;49.326;12.690;2023-03-01T12:55:50;10.10;83.70
16140;DHT22;8175;49.326;12.690;2023-03-01T13:01:22;9.30;85.50
16140;DHT22;8175;49.326;12.690;2023-03-01T13:20:59;9.90;85.80
16140;DHT22;8175;49.326;12.690;2023-03-01T13:23:32;9.30;86.10
16140;DHT22;8175;49.326;12.690;2023-03-01T13:26:09;9.10;87.10
16140;DHT22;8175;49.326;12.690;2023-03-01T13:33:52;10.20;86.90
16140;DHT22;8175;49.326;12.690;2023-03-01T13:46:59;9.40;87.50
16140;DHT22;8175;49.326;12.690;2023-03-01T13:49:28;9.00;87.70
16140;DHT22;8175;49.326;12.690;2023-03-01T13:51:55;8.20;90.90
16140;DHT22;8175;49.326;12.690;2023-03-01T13:54:30;8.50;91.10
16140;DHT22;8175;49.326;12.690;2023-03-01T13:56:58;8.60;90.60
16140;DHT22;8175;49.326;12.690;2023-03-01T13:59:24;8.30;91.30
16140;DHT22;8175;49.326;12.690;2023-03-01T14:01:57;7.90;91.60
16140;DHT22;8175;49.326;12.690;2023-03-01T14:04:33;8.60;91.40
16140;DHT22;8175;49.326;12.690;2023-03-01T14:07:33;8.00;91.20
16140;DHT22;8175;49.326;12.690;2023-03-01T14:10:03;8.80;91.00
16140;DHT22;8175;49.326;12.690;2023-03-01T14:15:36;8.90;89.70
16140;DHT22;8175;49.326;12.690;2023-03-01T14:18:27;8.70;90.70
16140;DHT22;8175;49.326;12.690;2023-03-01T14:20:55;9.50;89.60
16140;DHT22;8175;49.326;12.690;2023-03-01T14:23:22;8.90;90.50
16140;DHT22;8175;49.326;12.690;2023-03-01T14:25:51;9.10;91.80
16140;DHT22;8175;49.326;12.690;2023-03-01T14:28:28;9.80;89.90
16140;DHT22;8175;49.326;12.690;2023-03-01T14:30:57;8.90;91.10
16140;DHT22;8175;49.326;12.690;2023-03-01T14:33:25;8.90;92.00
16140;DHT22;8175;49.326;12.690;2023-03-01T14:38:28;9.90;89.70
16140;DHT22;8175;49.326;12.690;2023-03-01T14:40:58;10.20;87.80
16140;DHT22;8175;49.326;12.690;2023-03-01T14:43:24;10.00;88.50
16140;DHT22;8175;49.326;12.690;2023-03-01T14:45:53;9.20;89.80
16140;DHT22;8175;49.326;12.690;2023-03-01T14:48:20;8.50;91.00
16140;DHT22;8175;49.326;12.690;2023-03-01T14:50:45;8.30;91.40
16140;DHT22;8175;49.326;12.690;2023-03-01T14:53:17;8.10;92.30
16140;DHT22;8175;49.326;12.690;2023-03-01T14:55:50;8.20;91.60
16140;DHT22;8175;49.326;12.690;2023-03-01T14:58:20;7.80;93.10
16140;DHT22;8175;49.326;12.690;2023-03-01T15:00:58;8.60;91.90
16140;DHT22;8175;49.326;12.690;2023-03-01T15:03:31;8.60;91.60
16140;DHT22;8175;49.326;12.690;2023-03-01T15:06:00;8.50;90.60
16140;DHT22;8175;49.326;12.690;2023-03-01T15:08:26;8.20;91.00
16140;DHT22;8175;49.326;12.690;2023-03-01T15:13:44;7.30;92.50
16140;DHT22;8175;49.326;12.690;2023-03-01T15:16:14;7.40;93.60
16140;DHT22;8175;49.326;12.690;2023-03-01T15:19:14;6.90;93.70
16140;DHT22;8175;49.326;12.690;2023-03-01T15:21:44;6.60;94.70
16140;DHT22;8175;49.326;12.690;2023-03-01T15:26:53;5.80;96.20
16140;DHT22;8175;49.326;12.690;2023-03-01T15:29:26;5.70;96.70
16140;DHT22;8175;49.326;12.690;2023-03-01T15:32:04;5.40;97.20
16140;DHT22;8175;49.326;12.690;2023-03-01T15:34:37;5.40;98.10
16140;DHT22;8175;49.326;12.690;2023-03-01T15:37:06;5.20;98.30
16140;DHT22;8175;49.326;12.690;2023-03-01T15:39:57;5.20;98.50
16140;DHT22;8175;49.326;12.690;2023-03-01T15:47:40;4.90;99.40
16140;DHT22;8175;49.326;12.690;2023-03-01T15:50:19;4.90;99.80
16140;DHT22;8175;49.326;12.690;2023-03-01T15:52:46;4.90;99.70
16140;DHT22;8175;49.326;12.690;2023-03-01T15:55:31;4.90;99.90
16140;DHT22;8175;49.326;12.690;2023-03-01T15:58:02;4.80;99.90
16140;DHT22;8175;49.326;12.690;2023-03-01T16:00:28;4.70;99.90
16140;DHT22;8175;49.326;12.690;2023-03-01T16:02:55;4.60;99.90
16140;DHT22;8175;49.326;12.690;2023-03-01T16:05:26;4.60;99.90
16140;DHT22;8175;49.326;12.690;2023-03-01T16:07:53;4.60;99.90
16140;DHT22;8175;49.326;12.690;2023-03-01T16:10:19;4.50;99.90
16140;DHT22;8175;49.326;12.690;2023-03-01T16:12:45;4.60;99.90
16140;DHT22;8175;49.326;12.690;2023-03-01T16:15:32;4.50;99.90
16140;DHT22;8175;49.326;12.690;2023-03-01T16:18:02;4.40;99.90
16140;DHT22;8175;49.326;12.690;2023-03-01T16:20:28;4.40;99.90
16140;DHT22;8175;49.326;12.690;2023-03-01T16:22:58;4.30;99.90
16140;DHT22;8175;49.326;12.690;2023-03-01T16:25:25;4.30;99.90
16140;DHT22;8175;49.326;12.690;2023-03-01T16:27:51;4.20;99.90
16140;DHT22;8175;49.326;12.690;2023-03-01T16:30:19;4.20;99.90
16140;DHT22;8175;49.326;12.690;2023-03-01T16:32:47;4.20;99.90
16140;DHT22;8175;49.326;12.690;2023-03-01T16:35:15;4.00;99.90
16140;DHT22;8175;49.326;12.690;2023-03-01T16:37:41;4.00;99.90
16140;DHT22;8175;49.326;12.690;2023-03-01T16:40:17;4.00;99.90
16140;DHT22;8175;49.326;12.690;2023-03-01T16:42:43;3.90;99.90
16140;DHT22;8175;49.326;12.690;2023-03-01T16:45:09;3.80;99.90
16140;DHT22;8175;49.326;12.690;2023-03-01T16:47:35;3.80;99.90
16140;DHT22;8175;49.326;12.690;2023-03-01T16:50:01;3.70;99.90
16140;DHT22;8175;49.326;12.690;2023-03-01T16:52:27;3.70;99.90
16140;DHT22;8175;49.326;12.690;2023-03-01T16:54:53;3.70;99.90
16140;DHT22;8175;49.326;12.690;2023-03-01T16:57:19;3.70;99.90
16140;DHT22;8175;49.326;12.690;2023-03-01T16:59:44;3.60;99.90
16140;DHT22;8175;49.326;12.690;2023-03-01T17:02:12;3.50;99.90
16140;DHT22;8175;49.326;12.690;2023-03-01T17:04:38;3.40;99.90
16140;DHT22;8175;49.326;12.690;2023-03-01T17:07:05;3.40;99.90
16140;DHT22;8175;49.326;12.690;2023-03-01T17:09:34;3.40;99.90
16140;DHT22;8175;49.326;12.690;2023-03-01T17:12:00;3.30;99.90
16140;DHT22;8175;49.326;12.690;2023-03-01T17:14:25;3.30;99.90
16140;DHT22;8175;49.326;12.690;2023-03-01T17:16:51;3.10;99.90
16140;DHT22;8175;49.326;12.690;2023-03-01T17:19:18;3.00;99.90
16140;DHT22;8175;49.326;12.690;2023-03-01T17:21:44;3.10;99.90
16140;DHT22;8175;49.326;12.690;2023-03-01T17:24:10;3.20;99.90
16140;DHT22;8175;49.326;12.690;2023-03-01T17:26:37;3.20;99.90
16140;DHT22;8175;49.326;12.690;2023-03-01T17:29:03;3.20;99.90
16140;DHT22;8175;49.326;12.690;2023-03-01T17:31:33;3.20;99.90
16140;DHT22;8175;49.326;12.690;2023-03-01T17:33:58;3.30;99.90
16140;DHT22;8175;49.326;12.690;2023-03-01T17:36:24;3.20;99.90
16140;DHT22;8175;49.326;12.690;2023-03-01T17:38:51;3.20;99.90
16140;DHT22;8175;49.326;12.690;2023-03-01T17:41:17;3.10;99.90
16140;DHT22;8175;49.326;12.690;2023-03-01T17:43:46;3.20;99.90
16140;DHT22;8175;49.326;12.690;2023-03-01T17:46:12;3.10;99.90
16140;DHT22;8175;49.326;12.690;2023-03-01T17:48:38;3.10;99.90
16140;DHT22;8175;49.326;12.690;2023-03-01T17:51:08;3.00;99.90
16140;DHT22;8175;49.326;12.690;2023-03-01T17:53:34;3.00;99.90
16140;DHT22;8175;49.326;12.690;2023-03-01T17:56:03;3.00;99.90
16140;DHT22;8175;49.326;12.690;2023-03-01T17:58:29;3.10;99.90